sensor_id;sensor_type;location;lat;lon;timestamp;temperature;humidity
27667;DHT22;15074;50.940;5.282;2023-12-20T01:26:23;5.50;99.90
27667;DHT22;15074;50.940;5.282;2023-12-20T01:28:49;6.00;99.90
27667;DHT22;15074;50.940;5.282;2023-12-20T01:31:15;5.90;99.90
27667;DHT22;15074;50.940;5.282;2023-12-20T01:33:40;5.80;99.90
27667;DHT22;15074;50.940;5.282;2023-12-20T01:36:06;5.70;99.90
27667;DHT22;15074;50.940;5.282;2023-12-20T01:38:31;5.70;99.90
27667;DHT22;15074;50.940;5.282;2023-12-20T01:40:57;5.60;99.90
27667;DHT22;15074;50.940;5.282;2023-12-20T01:43:23;5.60;99.90
27667;DHT22;15074;50.940;5.282;2023-12-20T01:45:49;5.60;99.90
27667;DHT22;15074;50.940;5.282;2023-12-20T01:48:16;5.60;99.90
27667;DHT22;15074;50.940;5.282;2023-12-20T01:50:42;5.60;99.90
27667;DHT22;15074;50.940;5.282;2023-12-20T01:53:10;5.50;99.90
27667;DHT22;15074;50.940;5.282;2023-12-20T01:55:39;5.50;99.90
27667;DHT22;15074;50.940;5.282;2023-12-20T01:58:08;5.50;99.90
27667;DHT22;15074;50.940;5.282;2023-12-20T02:00:34;5.50;99.90
27667;DHT22;15074;50.940;5.282;2023-12-20T02:03:02;5.50;99.90
27667;DHT22;15074;50.940;5.282;2023-12-20T02:05:29;5.50;99.90
27667;DHT22;15074;50.940;5.282;2023-12-20T02:07:55;5.50;99.90
27667;DHT22;15074;50.940;5.282;2023-12-20T02:10:21;5.50;99.90
27667;DHT22;15074;50.940;5.282;2023-12-20T02:12:46;5.40;99.90
27667;DHT22;15074;50.940;5.282;2023-12-20T02:15:12;5.50;99.90
27667;DHT22;15074;50.940;5.282;2023-12-20T02:17:38;5.50;99.90
27667;DHT22;15074;50.940;5.282;2023-12-20T02:20:05;5.40;99.90
27667;DHT22;15074;50.940;5.282;2023-12-20T02:22:31;5.40;99.90
27667;DHT22;15074;50.940;5.282;2023-12-20T02:24:57;5.30;99.90
27667;DHT22;15074;50.940;5.282;2023-12-20T02:27:23;5.30;99.90
27667;DHT22;15074;50.940;5.282;2023-12-20T02:29:49;5.30;99.90
27667;DHT22;15074;50.940;5.282;2023-12-20T02:32:19;5.30;99.90
27667;DHT22;15074;50.940;5.282;2023-12-20T02:34:49;5.30;99.90
27667;DHT22;15074;50.940;5.282;2023-12-20T02:37:15;5.20;99.90
27667;DHT22;15074;50.940;5.282;2023-12-20T02:39:40;5.20;99.90
27667;DHT22;15074;50.940;5.282;2023-12-20T02:42:06;5.20;99.90
27667;DHT22;15074;50.940;5.282;2023-12-20T02:44:32;5.20;99.90
27667;DHT22;15074;50.940;5.282;2023-12-20T02:46:58;5.20;99.90
27667;DHT22;15074;50.940;5.282;2023-12-20T02:49:23;5.20;99.90
27667;DHT22;15074;50.940;5.282;2023-12-20T02:51:49;5.10;99.90
27667;DHT22;15074;50.940;5.282;2023-12-20T02:54:14;5.20;99.90
27667;DHT22;15074;50.940;5.282;2023-12-20T02:56:40;5.10;99.90
27667;DHT22;15074;50.940;5.282;2023-12-20T02:59:06;5.00;99.90
27667;DHT22;15074;50.940;5.282;2023-12-20T03:01:34;5.00;99.90
27667;DHT22;15074;50.940;5.282;2023-12-20T03:04:00;4.90;99.90
27667;DHT22;15074;50.940;5.282;2023-12-20T03:06:25;4.90;99.90
27667;DHT22;15074;50.940;5.282;2023-12-20T03:08:51;5.00;99.90
27667;DHT22;15074;50.940;5.282;2023-12-20T03:11:17;5.10;99.90
27667;DHT22;15074;50.940;5.282;2023-12-20T03:13:43;5.10;99.90
27667;DHT22;15074;50.940;5.282;2023-12-20T03:16:13;5.20;99.90
27667;DHT22;15074;50.940;5.282;2023-12-20T03:18:39;5.10;99.90
27667;DHT22;15074;50.940;5.282;2023-12-20T03:21:05;5.10;99.90
27667;DHT22;15074;50.940;5.282;2023-12-20T03:23:31;5.20;99.90
27667;DHT22;15074;50.940;5.282;2023-12-20T03:26:00;5.20;99.90
27667;DHT22;15074;50.940;5.282;2023-12-20T03:28:27;5.20;99.90
27667;DHT22;15074;50.940;5.282;2023-12-20T03:30:52;5.20;99.90
27667;DHT22;15074;50.940;5.282;2023-12-20T03:33:18;5.20;99.90
27667;DHT22;15074;50.940;5.282;2023-12-20T03:35:44;5.20;99.90
27667;DHT22;15074;50.940;5.282;2023-12-20T03:38:10;5.10;99.90
27667;DHT22;15074;50.940;5.282;2023-12-20T03:40:35;5.10;99.90
27667;DHT22;15074;50.940;5.282;2023-12-20T03:43:01;5.10;99.90
27667;DHT22;15074;50.940;5.282;2023-12-20T03:45:27;5.10;99.90
27667;DHT22;15074;50.940;5.282;2023-12-20T03:47:52;5.10;99.90
27667;DHT22;15074;50.940;5.282;2023-12-20T03:50:24;5.10;99.90
27667;DHT22;15074;50.940;5.282;2023-12-20T03:52:49;5.20;99.90
27667;DHT22;15074;50.940;5.282;2023-12-20T03:55:15;5.20;99.90
27667;DHT22;15074;50.940;5.282;2023-12-20T03:57:41;5.30;99.90
27667;DHT22;15074;50.940;5.282;2023-12-20T04:00:07;5.30;99.90
27667;DHT22;15074;50.940;5.282;2023-12-20T04:02:45;5.30;99.90
27667;DHT22;15074;50.940;5.282;2023-12-20T04:05:11;5.30;99.90
27667;DHT22;15074;50.940;5.282;2023-12-20T04:07:37;5.40;99.90
27667;DHT22;15074;50.940;5.282;2023-12-20T04:10:03;5.30;99.90
27667;DHT22;15074;50.940;5.282;2023-12-20T04:12:32;5.40;99.90
27667;DHT22;15074;50.940;5.282;2023-12-20T04:14:58;5.40;99.90
27667;DHT22;15074;50.940;5.282;2023-12-20T04:17:24;5.40;99.90
27667;DHT22;15074;50.940;5.282;2023-12-20T04:19:50;5.50;99.90
27667;DHT22;15074;50.940;5.282;2023-12-20T04:22:17;5.50;99.90
27667;DHT22;15074;50.940;5.282;2023-12-20T04:24:42;5.60;99.90
27667;DHT22;15074;50.940;5.282;2023-12-20T04:27:08;5.60;99.90
27667;DHT22;15074;50.940;5.282;2023-12-20T04:29:34;5.60;99.90
27667;DHT22;15074;50.940;5.282;2023-12-20T04:32:00;5.70;99.90
27667;DHT22;15074;50.940;5.282;2023-12-20T04:34:25;5.70;99.90
27667;DHT22;15074;50.940;5.282;2023-12-20T04:36:52;5.70;99.90
27667;DHT22;15074;50.940;5.282;2023-12-20T04:39:17;5.70;99.90
27667;DHT22;15074;50.940;5.282;2023-12-20T04:41:43;5.70;99.90
27667;DHT22;15074;50.940;5.282;2023-12-20T04:44:08;5.70;99.90
27667;DHT22;15074;50.940;5.282;2023-12-20T04:46:34;5.70;99.90
27667;DHT22;15074;50.940;5.282;2023-12-20T04:49:00;5.70;99.90
27667;DHT22;15074;50.940;5.282;2023-12-20T04:51:25;5.70;99.90
27667;DHT22;15074;50.940;5.282;2023-12-20T04:53:51;5.70;99.90
27667;DHT22;15074;50.940;5.282;2023-12-20T04:56:17;5.70;99.90
27667;DHT22;15074;50.940;5.282;2023-12-20T04:58:42;5.60;99.90
27667;DHT22;15074;50.940;5.282;2023-12-20T05:01:08;5.50;99.90
27667;DHT22;15074;50.940;5.282;2023-12-20T05:03:34;5.50;99.90
27667;DHT22;15074;50.940;5.282;2023-12-20T05:06:00;5.50;99.90
27667;DHT22;15074;50.940;5.282;2023-12-20T05:08:25;5.50;99.90
27667;DHT22;15074;50.940;5.282;2023-12-20T05:10:55;5.50;99.90
27667;DHT22;15074;50.940;5.282;2023-12-20T05:13:21;5.50;99.90
27667;DHT22;15074;50.940;5.282;2023-12-20T05:15:46;5.50;99.90
27667;DHT22;15074;50.940;5.282;2023-12-20T05:18:12;5.50;99.90
27667;DHT22;15074;50.940;5.282;2023-12-20T05:20:38;5.50;99.90
27667;DHT22;15074;50.940;5.282;2023-12-20T05:23:04;5.50;99.90
27667;DHT22;15074;50.940;5.282;2023-12-20T05:25:30;5.40;99.90
27667;DHT22;15074;50.940;5.282;2023-12-20T05:27:56;5.40;99.90
27667;DHT22;15074;50.940;5.282;2023-12-20T05:30:21;5.40;99.90
27667;DHT22;15074;50.940;5.282;2023-12-20T05:32:47;5.30;99.90
27667;DHT22;15074;50.940;5.282;2023-12-20T05:35:13;5.30;99.90
27667;DHT22;15074;50.940;5.282;2023-12-20T05:37:39;5.20;99.90
27667;DHT22;15074;50.940;5.282;2023-12-20T05:40:05;5.30;99.90
27667;DHT22;15074;50.940;5.282;2023-12-20T05:42:31;5.20;99.90
27667;DHT22;15074;50.940;5.282;2023-12-20T05:44:56;5.10;99.90
27667;DHT22;15074;50.940;5.282;2023-12-20T05:47:22;5.10;99.90
27667;DHT22;15074;50.940;5.282;2023-12-20T05:49:47;5.10;99.90
27667;DHT22;15074;50.940;5.282;2023-12-20T05:52:13;5.00;99.90
27667;DHT22;15074;50.940;5.282;2023-12-20T05:54:40;5.00;99.90
27667;DHT22;15074;50.940;5.282;2023-12-20T05:57:05;4.90;99.90
27667;DHT22;15074;50.940;5.282;2023-12-20T05:59:31;4.90;99.90
27667;DHT22;15074;50.940;5.282;2023-12-20T06:01:57;4.90;99.90
27667;DHT22;15074;50.940;5.282;2023-12-20T06:04:22;4.90;99.90
27667;DHT22;15074;50.940;5.282;2023-12-20T06:06:48;4.90;99.90
27667;DHT22;15074;50.940;5.282;2023-12-20T06:09:14;4.90;99.90
27667;DHT22;15074;50.940;5.282;2023-12-20T06:11:40;4.90;99.90
27667;DHT22;15074;50.940;5.282;2023-12-20T06:14:07;4.80;99.90
27667;DHT22;15074;50.940;5.282;2023-12-20T06:16:33;4.80;99.90
27667;DHT22;15074;50.940;5.282;2023-12-20T06:18:58;4.80;99.90
27667;DHT22;15074;50.940;5.282;2023-12-20T06:21:24;4.80;99.90
27667;DHT22;15074;50.940;5.282;2023-12-20T06:23:49;4.80;99.90
27667;DHT22;15074;50.940;5.282;2023-12-20T06:26:15;4.80;99.90
27667;DHT22;15074;50.940;5.282;2023-12-20T06:28:41;4.80;99.90
27667;DHT22;15074;50.940;5.282;2023-12-20T06:31:06;4.80;99.90
27667;DHT22;15074;50.940;5.282;2023-12-20T06:33:32;4.80;99.90
27667;DHT22;15074;50.940;5.282;2023-12-20T06:35:58;4.90;99.90
27667;DHT22;15074;50.940;5.282;2023-12-20T06:38:23;4.90;99.90
27667;DHT22;15074;50.940;5.282;2023-12-20T06:40:49;5.00;99.90
27667;DHT22;15074;50.940;5.282;2023-12-20T06:43:15;5.00;99.90
27667;DHT22;15074;50.940;5.282;2023-12-20T06:45:40;5.10;99.90
27667;DHT22;15074;50.940;5.282;2023-12-20T06:48:06;5.10;99.90
27667;DHT22;15074;50.940;5.282;2023-12-20T06:50:32;5.20;99.90
27667;DHT22;15074;50.940;5.282;2023-12-20T06:52:58;5.20;99.90
27667;DHT22;15074;50.940;5.282;2023-12-20T06:55:23;5.30;99.90
27667;DHT22;15074;50.940;5.282;2023-12-20T06:57:49;5.30;99.90
27667;DHT22;15074;50.940;5.282;2023-12-20T07:00:15;5.30;99.90
27667;DHT22;15074;50.940;5.282;2023-12-20T07:02:41;5.30;99.90
27667;DHT22;15074;50.940;5.282;2023-12-20T07:05:07;5.30;99.90
27667;DHT22;15074;50.940;5.282;2023-12-20T07:10:36;5.30;99.90
27667;DHT22;15074;50.940;5.282;2023-12-20T07:13:02;5.20;99.90
27667;DHT22;15074;50.940;5.282;2023-12-20T07:15:28;5.20;99.90
27667;DHT22;15074;50.940;5.282;2023-12-20T07:17:55;5.10;99.90
27667;DHT22;15074;50.940;5.282;2023-12-20T07:20:20;5.20;99.90
27667;DHT22;15074;50.940;5.282;2023-12-20T07:26:44;5.30;99.90
27667;DHT22;15074;50.940;5.282;2023-12-20T07:29:10;5.20;99.90
27667;DHT22;15074;50.940;5.282;2023-12-20T07:31:36;5.20;99.90
27667;DHT22;15074;50.940;5.282;2023-12-20T07:34:01;5.20;99.90
27667;DHT22;15074;50.940;5.282;2023-12-20T07:36:27;5.10;99.90
27667;DHT22;15074;50.940;5.282;2023-12-20T07:55:57;5.10;99.90
27667;DHT22;15074;50.940;5.282;2023-12-20T07:58:23;5.10;99.90
27667;DHT22;15074;50.940;5.282;2023-12-20T08:00:48;5.10;99.90
27667;DHT22;15074;50.940;5.282;2023-12-20T08:03:14;5.10;99.90
27667;DHT22;15074;50.940;5.282;2023-12-20T08:05:40;5.00;99.90
27667;DHT22;15074;50.940;5.282;2023-12-20T08:08:06;5.00;99.90
27667;DHT22;15074;50.940;5.282;2023-12-20T08:10:32;4.90;99.90
27667;DHT22;15074;50.940;5.282;2023-12-20T08:12:57;4.90;99.90
27667;DHT22;15074;50.940;5.282;2023-12-20T08:15:23;4.90;99.90
27667;DHT22;15074;50.940;5.282;2023-12-20T08:17:49;4.90;99.90
27667;DHT22;15074;50.940;5.282;2023-12-20T08:20:16;4.90;99.90
27667;DHT22;15074;50.940;5.282;2023-12-20T08:22:42;5.00;99.90
27667;DHT22;15074;50.940;5.282;2023-12-20T08:25:26;5.00;99.90
27667;DHT22;15074;50.940;5.282;2023-12-20T08:27:53;5.20;99.90
27667;DHT22;15074;50.940;5.282;2023-12-20T08:30:18;5.30;99.90
27667;DHT22;15074;50.940;5.282;2023-12-20T08:32:50;5.40;99.90
27667;DHT22;15074;50.940;5.282;2023-12-20T08:35:16;5.40;99.90
27667;DHT22;15074;50.940;5.282;2023-12-20T08:37:43;5.60;99.90
27667;DHT22;15074;50.940;5.282;2023-12-20T08:40:09;5.70;99.90
27667;DHT22;15074;50.940;5.282;2023-12-20T08:42:35;5.80;99.90
27667;DHT22;15074;50.940;5.282;2023-12-20T08:45:00;5.90;99.90
27667;DHT22;15074;50.940;5.282;2023-12-20T08:47:26;6.00;99.90
27667;DHT22;15074;50.940;5.282;2023-12-20T08:49:52;6.00;99.90
27667;DHT22;15074;50.940;5.282;2023-12-20T08:52:22;6.00;99.90
27667;DHT22;15074;50.940;5.282;2023-12-20T08:54:49;6.00;99.90
27667;DHT22;15074;50.940;5.282;2023-12-20T08:57:18;6.00;99.90
27667;DHT22;15074;50.940;5.282;2023-12-20T08:59:43;6.10;99.90
27667;DHT22;15074;50.940;5.282;2023-12-20T09:02:09;6.10;99.90
27667;DHT22;15074;50.940;5.282;2023-12-20T09:04:35;6.00;99.90
27667;DHT22;15074;50.940;5.282;2023-12-20T09:07:00;6.00;99.90
27667;DHT22;15074;50.940;5.282;2023-12-20T09:09:26;6.10;99.90
27667;DHT22;15074;50.940;5.282;2023-12-20T09:11:52;6.10;99.90
27667;DHT22;15074;50.940;5.282;2023-12-20T09:14:18;6.00;99.90
27667;DHT22;15074;50.940;5.282;2023-12-20T09:16:44;6.20;99.90
27667;DHT22;15074;50.940;5.282;2023-12-20T09:19:10;6.90;99.90
27667;DHT22;15074;50.940;5.282;2023-12-20T09:21:35;7.50;99.90
27667;DHT22;15074;50.940;5.282;2023-12-20T09:24:01;8.00;99.90
27667;DHT22;15074;50.940;5.282;2023-12-20T09:26:27;8.30;99.90
27667;DHT22;15074;50.940;5.282;2023-12-20T09:28:52;8.30;99.90
27667;DHT22;15074;50.940;5.282;2023-12-20T09:31:18;8.30;99.90
27667;DHT22;15074;50.940;5.282;2023-12-20T09:33:43;8.10;99.90
27667;DHT22;15074;50.940;5.282;2023-12-20T09:36:09;7.60;99.90
27667;DHT22;15074;50.940;5.282;2023-12-20T09:38:35;7.50;99.90
27667;DHT22;15074;50.940;5.282;2023-12-20T09:41:00;7.50;99.90
27667;DHT22;15074;50.940;5.282;2023-12-20T09:43:29;7.80;99.90
27667;DHT22;15074;50.940;5.282;2023-12-20T09:46:00;8.20;99.90
27667;DHT22;15074;50.940;5.282;2023-12-20T09:48:29;8.60;99.90
27667;DHT22;15074;50.940;5.282;2023-12-20T09:50:56;9.30;99.90
27667;DHT22;15074;50.940;5.282;2023-12-20T09:53:22;10.00;99.90
27667;DHT22;15074;50.940;5.282;2023-12-20T09:55:57;10.50;99.90
27667;DHT22;15074;50.940;5.282;2023-12-20T09:58:24;10.60;99.90
27667;DHT22;15074;50.940;5.282;2023-12-20T10:00:50;10.70;99.90
27667;DHT22;15074;50.940;5.282;2023-12-20T10:03:17;10.60;99.90
27667;DHT22;15074;50.940;5.282;2023-12-20T10:05:45;10.20;99.90
27667;DHT22;15074;50.940;5.282;2023-12-20T10:08:12;10.20;99.90
27667;DHT22;15074;50.940;5.282;2023-12-20T10:10:38;10.00;99.90
27667;DHT22;15074;50.940;5.282;2023-12-20T10:13:04;9.70;99.90
27667;DHT22;15074;50.940;5.282;2023-12-20T10:15:31;9.20;99.90
27667;DHT22;15074;50.940;5.282;2023-12-20T10:17:57;9.60;99.90
27667;DHT22;15074;50.940;5.282;2023-12-20T10:20:23;10.10;99.90
27667;DHT22;15074;50.940;5.282;2023-12-20T10:22:49;9.70;99.90
27667;DHT22;15074;50.940;5.282;2023-12-20T10:25:15;9.20;99.90
27667;DHT22;15074;50.940;5.282;2023-12-20T10:27:41;8.80;99.90
27667;DHT22;15074;50.940;5.282;2023-12-20T10:30:07;8.40;99.90
27667;DHT22;15074;50.940;5.282;2023-12-20T10:32:33;8.00;99.90
27667;DHT22;15074;50.940;5.282;2023-12-20T10:34:59;7.80;99.90
27667;DHT22;15074;50.940;5.282;2023-12-20T10:37:25;7.70;99.90
27667;DHT22;15074;50.940;5.282;2023-12-20T10:39:52;7.60;99.90
27667;DHT22;15074;50.940;5.282;2023-12-20T10:42:22;7.70;99.90
27667;DHT22;15074;50.940;5.282;2023-12-20T10:44:49;7.70;99.90
27667;DHT22;15074;50.940;5.282;2023-12-20T10:47:16;7.80;99.90
27667;DHT22;15074;50.940;5.282;2023-12-20T10:49:42;7.80;99.90
27667;DHT22;15074;50.940;5.282;2023-12-20T10:52:09;7.80;99.90
27667;DHT22;15074;50.940;5.282;2023-12-20T10:54:35;7.90;99.90
27667;DHT22;15074;50.940;5.282;2023-12-20T10:57:04;7.90;99.90
27667;DHT22;15074;50.940;5.282;2023-12-20T10:59:33;7.90;99.90
27667;DHT22;15074;50.940;5.282;2023-12-20T11:02:02;8.00;99.90
27667;DHT22;15074;50.940;5.282;2023-12-20T11:04:41;8.10;99.90
27667;DHT22;15074;50.940;5.282;2023-12-20T11:10:16;8.30;99.90
27667;DHT22;15074;50.940;5.282;2023-12-20T11:15:11;8.30;99.90
27667;DHT22;15074;50.940;5.282;2023-12-20T11:17:39;8.30;99.90
27667;DHT22;15074;50.940;5.282;2023-12-20T11:20:06;8.20;99.90
27667;DHT22;15074;50.940;5.282;2023-12-20T11:22:32;8.40;99.90
27667;DHT22;15074;50.940;5.282;2023-12-20T11:25:06;8.30;99.90
27667;DHT22;15074;50.940;5.282;2023-12-20T11:27:34;8.20;99.90
27667;DHT22;15074;50.940;5.282;2023-12-20T11:29:59;8.30;99.90
27667;DHT22;15074;50.940;5.282;2023-12-20T11:32:28;8.30;99.90
27667;DHT22;15074;50.940;5.282;2023-12-20T11:37:40;8.10;99.90
27667;DHT22;15074;50.940;5.282;2023-12-20T11:40:14;8.10;99.90
27667;DHT22;15074;50.940;5.282;2023-12-20T11:42:50;8.00;99.90
27667;DHT22;15074;50.940;5.282;2023-12-20T11:45:21;8.00;99.90
27667;DHT22;15074;50.940;5.282;2023-12-20T11:47:50;7.90;99.90
27667;DHT22;15074;50.940;5.282;2023-12-20T11:50:19;7.90;99.90
27667;DHT22;15074;50.940;5.282;2023-12-20T11:52:46;7.90;99.90
27667;DHT22;15074;50.940;5.282;2023-12-20T11:55:11;7.90;99.90
27667;DHT22;15074;50.940;5.282;2023-12-20T11:57:37;7.80;99.90
27667;DHT22;15074;50.940;5.282;2023-12-20T12:00:04;7.90;99.90
27667;DHT22;15074;50.940;5.282;2023-12-20T12:02:30;7.80;99.90
27667;DHT22;15074;50.940;5.282;2023-12-20T12:04:56;7.80;99.90
27667;DHT22;15074;50.940;5.282;2023-12-20T12:07:24;7.70;99.90
27667;DHT22;15074;50.940;5.282;2023-12-20T12:09:49;7.60;99.90
27667;DHT22;15074;50.940;5.282;2023-12-20T12:12:16;7.60;99.90
27667;DHT22;15074;50.940;5.282;2023-12-20T12:14:42;7.60;99.90
27667;DHT22;15074;50.940;5.282;2023-12-20T12:17:12;7.60;99.90
27667;DHT22;15074;50.940;5.282;2023-12-20T12:19:39;7.70;99.90
27667;DHT22;15074;50.940;5.282;2023-12-20T12:22:09;7.60;99.90
27667;DHT22;15074;50.940;5.282;2023-12-20T12:24:46;7.70;99.90
27667;DHT22;15074;50.940;5.282;2023-12-20T12:27:13;7.60;99.90
27667;DHT22;15074;50.940;5.282;2023-12-20T12:29:38;7.60;99.90
27667;DHT22;15074;50.940;5.282;2023-12-20T12:32:05;7.70;99.90
27667;DHT22;15074;50.940;5.282;2023-12-20T12:34:32;7.60;99.90
27667;DHT22;15074;50.940;5.282;2023-12-20T12:36:59;7.70;99.90
27667;DHT22;15074;50.940;5.282;2023-12-20T12:39:46;7.70;99.90
27667;DHT22;15074;50.940;5.282;2023-12-20T12:42:12;7.70;99.90
27667;DHT22;15074;50.940;5.282;2023-12-20T12:44:37;7.60;99.90
27667;DHT22;15074;50.940;5.282;2023-12-20T12:47:03;7.70;99.90
27667;DHT22;15074;50.940;5.282;2023-12-20T12:49:29;7.80;99.90
27667;DHT22;15074;50.940;5.282;2023-12-20T12:51:55;7.80;99.90
27667;DHT22;15074;50.940;5.282;2023-12-20T12:54:23;7.80;99.90
27667;DHT22;15074;50.940;5.282;2023-12-20T12:56:50;7.80;99.90
27667;DHT22;15074;50.940;5.282;2023-12-20T12:59:16;7.80;99.90
27667;DHT22;15074;50.940;5.282;2023-12-20T13:01:42;7.90;99.90
27667;DHT22;15074;50.940;5.282;2023-12-20T13:04:08;7.80;99.90
27667;DHT22;15074;50.940;5.282;2023-12-20T13:06:36;7.80;99.90
27667;DHT22;15074;50.940;5.282;2023-12-20T13:09:02;7.90;99.90
27667;DHT22;15074;50.940;5.282;2023-12-20T13:11:30;7.90;99.90
27667;DHT22;15074;50.940;5.282;2023-12-20T13:13:56;8.10;99.90
27667;DHT22;15074;50.940;5.282;2023-12-20T13:16:23;8.00;99.90
27667;DHT22;15074;50.940;5.282;2023-12-20T13:18:48;8.00;99.90
27667;DHT22;15074;50.940;5.282;2023-12-20T13:21:15;8.00;99.90
27667;DHT22;15074;50.940;5.282;2023-12-20T13:23:43;8.00;99.90
27667;DHT22;15074;50.940;5.282;2023-12-20T13:26:08;8.00;99.90
27667;DHT22;15074;50.940;5.282;2023-12-20T13:28:34;8.10;99.90
27667;DHT22;15074;50.940;5.282;2023-12-20T13:30:59;8.10;99.90
27667;DHT22;15074;50.940;5.282;2023-12-20T13:33:25;8.10;99.90
27667;DHT22;15074;50.940;5.282;2023-12-20T13:35:50;8.20;99.90
27667;DHT22;15074;50.940;5.282;2023-12-20T13:38:16;8.10;99.90
27667;DHT22;15074;50.940;5.282;2023-12-20T13:40:42;8.10;99.90
27667;DHT22;15074;50.940;5.282;2023-12-20T13:43:07;8.10;99.90
27667;DHT22;15074;50.940;5.282;2023-12-20T13:45:33;8.20;99.90
27667;DHT22;15074;50.940;5.282;2023-12-20T13:47:58;8.10;99.90
27667;DHT22;15074;50.940;5.282;2023-12-20T13:50:24;8.00;99.90
27667;DHT22;15074;50.940;5.282;2023-12-20T13:52:50;8.00;99.90
27667;DHT22;15074;50.940;5.282;2023-12-20T13:55:15;7.90;99.90
27667;DHT22;15074;50.940;5.282;2023-12-20T13:57:41;7.90;99.90
27667;DHT22;15074;50.940;5.282;2023-12-20T14:00:07;7.90;99.90
27667;DHT22;15074;50.940;5.282;2023-12-20T14:02:40;7.90;99.90
27667;DHT22;15074;50.940;5.282;2023-12-20T14:05:05;7.80;99.90
27667;DHT22;15074;50.940;5.282;2023-12-20T14:07:31;7.80;99.90
27667;DHT22;15074;50.940;5.282;2023-12-20T14:09:57;7.80;99.90
27667;DHT22;15074;50.940;5.282;2023-12-20T14:12:24;7.80;99.90
27667;DHT22;15074;50.940;5.282;2023-12-20T14:14:50;7.80;99.90
27667;DHT22;15074;50.940;5.282;2023-12-20T14:17:16;7.80;99.90
27667;DHT22;15074;50.940;5.282;2023-12-20T14:19:42;7.80;99.90
27667;DHT22;15074;50.940;5.282;2023-12-20T14:22:08;7.80;99.90
27667;DHT22;15074;50.940;5.282;2023-12-20T14:24:34;7.90;99.90
27667;DHT22;15074;50.940;5.282;2023-12-20T14:27:00;7.80;99.90
27667;DHT22;15074;50.940;5.282;2023-12-20T14:29:25;7.90;99.90
27667;DHT22;15074;50.940;5.282;2023-12-20T14:31:52;7.90;99.90
27667;DHT22;15074;50.940;5.282;2023-12-20T14:34:18;7.90;99.90
27667;DHT22;15074;50.940;5.282;2023-12-20T14:36:43;7.90;99.90
27667;DHT22;15074;50.940;5.282;2023-12-20T14:39:09;8.00;99.90
27667;DHT22;15074;50.940;5.282;2023-12-20T14:41:38;8.00;99.90
27667;DHT22;15074;50.940;5.282;2023-12-20T14:44:05;8.00;99.90
27667;DHT22;15074;50.940;5.282;2023-12-20T14:46:31;8.00;99.90
27667;DHT22;15074;50.940;5.282;2023-12-20T14:48:56;8.00;99.90
27667;DHT22;15074;50.940;5.282;2023-12-20T14:51:22;8.00;99.90
27667;DHT22;15074;50.940;5.282;2023-12-20T14:53:48;8.00;99.90
27667;DHT22;15074;50.940;5.282;2023-12-20T14:56:13;7.90;99.90
27667;DHT22;15074;50.940;5.282;2023-12-20T14:58:40;8.00;99.90
27667;DHT22;15074;50.940;5.282;2023-12-20T15:01:05;8.00;99.90
27667;DHT22;15074;50.940;5.282;2023-12-20T15:03:34;7.90;99.90
27667;DHT22;15074;50.940;5.282;2023-12-20T15:05:59;8.00;99.90
27667;DHT22;15074;50.940;5.282;2023-12-20T15:08:25;7.90;99.90
27667;DHT22;15074;50.940;5.282;2023-12-20T15:10:51;8.00;99.90
27667;DHT22;15074;50.940;5.282;2023-12-20T15:13:16;8.00;99.90
27667;DHT22;15074;50.940;5.282;2023-12-20T15:15:42;7.90;99.90
27667;DHT22;15074;50.940;5.282;2023-12-20T15:18:07;7.90;99.90
27667;DHT22;15074;50.940;5.282;2023-12-20T15:20:33;7.90;99.90
27667;DHT22;15074;50.940;5.282;2023-12-20T15:22:59;7.90;99.90
27667;DHT22;15074;50.940;5.282;2023-12-20T15:25:30;8.00;99.90
27667;DHT22;15074;50.940;5.282;2023-12-20T15:27:56;8.00;99.90
27667;DHT22;15074;50.940;5.282;2023-12-20T15:30:21;8.00;99.90
27667;DHT22;15074;50.940;5.282;2023-12-20T15:32:49;8.00;99.90
27667;DHT22;15074;50.940;5.282;2023-12-20T15:35:15;8.10;99.90
27667;DHT22;15074;50.940;5.282;2023-12-20T15:37:40;8.10;99.90
27667;DHT22;15074;50.940;5.282;2023-12-20T15:40:07;8.10;99.90
27667;DHT22;15074;50.940;5.282;2023-12-20T15:42:33;8.10;99.90
27667;DHT22;15074;50.940;5.282;2023-12-20T15:45:01;8.10;99.90
27667;DHT22;15074;50.940;5.282;2023-12-20T15:47:27;8.10;99.90
27667;DHT22;15074;50.940;5.282;2023-12-20T15:49:53;8.20;99.90
27667;DHT22;15074;50.940;5.282;2023-12-20T15:52:18;8.20;99.90
27667;DHT22;15074;50.940;5.282;2023-12-20T15:54:44;8.20;99.90
27667;DHT22;15074;50.940;5.282;2023-12-20T15:57:09;8.20;99.90
27667;DHT22;15074;50.940;5.282;2023-12-20T15:59:35;8.20;99.90
27667;DHT22;15074;50.940;5.282;2023-12-20T16:02:04;8.20;99.90
27667;DHT22;15074;50.940;5.282;2023-12-20T16:04:29;8.20;99.90
27667;DHT22;15074;50.940;5.282;2023-12-20T16:06:55;8.20;99.90
27667;DHT22;15074;50.940;5.282;2023-12-20T16:09:23;8.20;99.90
27667;DHT22;15074;50.940;5.282;2023-12-20T16:11:49;8.20;99.90
27667;DHT22;15074;50.940;5.282;2023-12-20T16:14:15;8.30;99.90
27667;DHT22;15074;50.940;5.282;2023-12-20T16:16:43;8.20;99.90
27667;DHT22;15074;50.940;5.282;2023-12-20T16:19:09;8.30;99.90
27667;DHT22;15074;50.940;5.282;2023-12-20T16:21:35;8.20;99.90
27667;DHT22;15074;50.940;5.282;2023-12-20T16:24:00;8.20;99.90
27667;DHT22;15074;50.940;5.282;2023-12-20T16:26:26;8.20;99.90
27667;DHT22;15074;50.940;5.282;2023-12-20T16:28:52;8.20;99.90
27667;DHT22;15074;50.940;5.282;2023-12-20T16:31:18;8.20;99.90
27667;DHT22;15074;50.940;5.282;2023-12-20T16:33:43;8.20;99.90
27667;DHT22;15074;50.940;5.282;2023-12-20T16:36:09;8.10;99.90
27667;DHT22;15074;50.940;5.282;2023-12-20T16:38:34;8.20;99.90
27667;DHT22;15074;50.940;5.282;2023-12-20T16:41:03;8.20;99.90
27667;DHT22;15074;50.940;5.282;2023-12-20T16:43:38;8.20;99.90
27667;DHT22;15074;50.940;5.282;2023-12-20T16:46:03;8.20;99.90
27667;DHT22;15074;50.940;5.282;2023-12-20T16:48:29;8.20;99.90
27667;DHT22;15074;50.940;5.282;2023-12-20T16:50:54;8.20;99.90
27667;DHT22;15074;50.940;5.282;2023-12-20T16:53:20;8.20;99.90
27667;DHT22;15074;50.940;5.282;2023-12-20T16:55:46;8.20;99.90
27667;DHT22;15074;50.940;5.282;2023-12-20T16:58:11;8.20;99.90
27667;DHT22;15074;50.940;5.282;2023-12-20T17:00:37;8.20;99.90
27667;DHT22;15074;50.940;5.282;2023-12-20T17:03:03;8.20;99.90
27667;DHT22;15074;50.940;5.282;2023-12-20T17:05:29;8.30;99.90
27667;DHT22;15074;50.940;5.282;2023-12-20T17:07:54;8.30;99.90
27667;DHT22;15074;50.940;5.282;2023-12-20T17:10:20;8.30;99.90
27667;DHT22;15074;50.940;5.282;2023-12-20T17:12:45;8.30;99.90
27667;DHT22;15074;50.940;5.282;2023-12-20T17:15:11;8.30;99.90
27667;DHT22;15074;50.940;5.282;2023-12-20T17:17:37;8.30;99.90
27667;DHT22;15074;50.940;5.282;2023-12-20T17:20:03;8.20;99.90
27667;DHT22;15074;50.940;5.282;2023-12-20T17:22:29;8.30;99.90
27667;DHT22;15074;50.940;5.282;2023-12-20T17:24:54;8.30;99.90
27667;DHT22;15074;50.940;5.282;2023-12-20T17:27:20;8.30;99.90
27667;DHT22;15074;50.940;5.282;2023-12-20T17:29:45;8.30;99.90
27667;DHT22;15074;50.940;5.282;2023-12-20T17:32:11;8.30;99.90
27667;DHT22;15074;50.940;5.282;2023-12-20T17:34:37;8.30;99.90
27667;DHT22;15074;50.940;5.282;2023-12-20T17:37:02;8.30;99.90